createdAt,value
2018-03-23T00:00:21.335Z,38.57
2018-03-23T00:02:48.118Z,36.80
2018-03-23T00:05:14.746Z,41.57
2018-03-23T00:07:41.756Z,41.50
2018-03-23T00:10:08.379Z,42.43
2018-03-23T00:12:34.981Z,39.37
2018-03-23T00:15:01.604Z,35.63
2018-03-23T00:17:28.250Z,39.43
2018-03-23T00:19:54.997Z,37.87
2018-03-23T00:22:21.639Z,37.23
2018-03-23T00:24:48.275Z,38.07
2018-03-23T00:27:14.883Z,37.17
2018-03-23T00:29:41.805Z,36.40
2018-03-23T00:32:08.413Z,38.87
2018-03-23T00:34:35.008Z,37.17
2018-03-23T00:37:01.651Z,44.03
2018-03-23T00:39:28.248Z,38.83
2018-03-23T00:41:54.874Z,38.47
2018-03-23T00:44:21.467Z,37.27
2018-03-23T00:46:48.097Z,37.60
2018-03-23T00:49:14.794Z,36.30
2018-03-23T00:51:41.472Z,37.50
2018-03-23T00:54:08.124Z,39.10
2018-03-23T00:56:34.743Z,37.27
2018-03-23T00:59:01.338Z,36.40
2018-03-23T01:01:27.956Z,38.37
2018-03-23T01:03:54.581Z,36.07
2018-03-23T01:06:21.189Z,37.13
2018-03-23T01:08:47.829Z,40.43
2018-03-23T01:11:14.429Z,37.57
2018-03-23T01:13:41.048Z,35.63
2018-03-23T01:16:07.672Z,37.57
2018-03-23T01:18:34.290Z,43.53
2018-03-23T01:21:00.900Z,40.90
2018-03-23T01:23:27.528Z,46.20
2018-03-23T01:25:54.158Z,42.13
2018-03-23T01:28:20.840Z,39.27
2018-03-23T01:30:47.701Z,44.30
2018-03-23T01:33:14.319Z,38.70
2018-03-23T01:35:40.941Z,43.77
2018-03-23T01:38:07.649Z,44.33
2018-03-23T01:40:34.279Z,47.10
2018-03-23T01:43:00.877Z,47.30
2018-03-23T01:45:27.537Z,52.07
2018-03-23T01:47:54.121Z,51.43
2018-03-23T01:50:20.723Z,56.13
2018-03-23T01:52:47.326Z,53.73
2018-03-23T01:55:14.021Z,59.60
2018-03-23T01:57:40.640Z,53.13
2018-03-23T02:00:07.262Z,53.03
2018-03-23T02:02:33.883Z,63.73
2018-03-23T02:05:00.503Z,57.97
2018-03-23T02:07:27.139Z,54.87
2018-03-23T02:09:53.754Z,51.97
2018-03-23T02:12:20.366Z,55.70
2018-03-23T02:14:46.960Z,64.93
2018-03-23T02:17:13.589Z,56.40
2018-03-23T02:19:40.192Z,54.63
2018-03-23T02:22:06.820Z,52.97
2018-03-23T02:24:33.442Z,61.77
2018-03-23T02:27:00.060Z,64.03
2018-03-23T02:29:26.640Z,60.07
2018-03-23T02:31:53.273Z,61.83
2018-03-23T02:34:19.880Z,59.60
2018-03-23T02:36:46.492Z,68.87
2018-03-23T02:39:13.108Z,62.47
2018-03-23T02:41:39.747Z,69.07
2018-03-23T02:44:06.350Z,60.17
2018-03-23T02:46:32.972Z,73.80
2018-03-23T02:48:59.587Z,63.53
2018-03-23T02:51:26.209Z,77.10
2018-03-23T02:53:52.812Z,68.20
2018-03-23T02:56:19.410Z,61.77
2018-03-23T02:58:46.062Z,66.00
2018-03-23T03:01:12.654Z,69.70
2018-03-23T03:03:39.265Z,64.43
2018-03-23T03:06:05.908Z,66.97
2018-03-23T03:08:32.520Z,64.10
2018-03-23T03:10:59.123Z,63.70
2018-03-23T03:13:25.768Z,66.37
2018-03-23T03:15:52.376Z,64.00
2018-03-23T03:18:19.016Z,67.70
2018-03-23T03:20:45.608Z,64.43
2018-03-23T03:23:12.241Z,74.40
2018-03-23T03:25:38.844Z,66.47
2018-03-23T03:28:05.768Z,60.03
2018-03-23T03:30:32.361Z,60.77
2018-03-23T03:32:58.991Z,67.63
2018-03-23T03:35:25.616Z,63.90
2018-03-23T03:37:52.236Z,63.90
2018-03-23T03:40:18.859Z,65.30
2018-03-23T03:42:45.492Z,64.80
2018-03-23T03:45:12.142Z,61.73
2018-03-23T03:47:38.811Z,61.10
2018-03-23T03:50:05.465Z,63.17
2018-03-23T03:52:32.063Z,64.07
2018-03-23T03:54:58.681Z,69.10
2018-03-23T03:57:25.300Z,65.93
2018-03-23T03:59:51.946Z,63.20
2018-03-23T04:02:18.536Z,63.87
2018-03-23T04:04:45.152Z,60.33
2018-03-23T04:07:11.785Z,70.33
2018-03-23T04:09:38.726Z,68.87
2018-03-23T04:12:05.352Z,62.30
2018-03-23T04:14:32.111Z,67.17
2018-03-23T04:16:58.832Z,71.20
2018-03-23T04:19:25.439Z,67.70
2018-03-23T04:21:52.051Z,74.00
2018-03-23T04:24:18.656Z,63.60
2018-03-23T04:26:45.290Z,63.40
2018-03-23T04:29:11.886Z,65.37
2018-03-23T04:31:38.483Z,64.70
2018-03-23T04:34:05.096Z,63.40
2018-03-23T04:36:31.712Z,70.47
2018-03-23T04:38:58.328Z,70.60
2018-03-23T04:41:24.939Z,76.90
2018-03-23T04:43:51.554Z,71.60
2018-03-23T04:46:18.180Z,69.87
2018-03-23T04:48:44.784Z,69.90
2018-03-23T04:51:11.473Z,68.17
2018-03-23T04:53:38.076Z,65.87
2018-03-23T04:56:04.690Z,73.20
2018-03-23T04:58:31.332Z,79.83
2018-03-23T05:00:58.008Z,71.57
2018-03-23T05:03:24.601Z,68.77
2018-03-23T05:05:51.527Z,71.03
2018-03-23T05:08:18.169Z,73.57
2018-03-23T05:10:44.766Z,73.57
2018-03-23T05:13:11.358Z,66.50
2018-03-23T05:15:37.979Z,67.43
2018-03-23T05:18:04.633Z,69.30
2018-03-23T05:20:31.335Z,61.27
2018-03-23T05:22:57.915Z,70.50
2018-03-23T05:25:24.521Z,65.10
2018-03-23T05:27:52.102Z,65.10
2018-03-23T05:30:18.737Z,73.93
2018-03-23T05:32:45.329Z,69.13
2018-03-23T05:35:12.003Z,75.43
2018-03-23T05:37:38.643Z,65.97
2018-03-23T05:40:06.467Z,68.17
2018-03-23T05:42:33.578Z,72.00
2018-03-23T05:45:00.428Z,72.77
2018-03-23T05:47:27.054Z,77.70
2018-03-23T05:49:53.692Z,74.33
2018-03-23T05:52:20.297Z,71.20
2018-03-23T05:54:46.878Z,76.90
2018-03-23T05:57:13.570Z,67.57
2018-03-23T05:59:40.231Z,71.30
2018-03-23T06:02:06.871Z,78.97
2018-03-23T06:04:33.482Z,72.73
2018-03-23T06:07:00.073Z,71.10
2018-03-23T06:09:26.702Z,74.27
2018-03-23T06:11:53.335Z,81.23
2018-03-23T06:14:20.004Z,69.03
2018-03-23T06:16:46.688Z,67.53
2018-03-23T06:19:13.315Z,75.17
2018-03-23T06:21:39.976Z,69.27
2018-03-23T06:24:06.827Z,73.97
2018-03-23T06:26:33.469Z,76.80
2018-03-23T06:29:00.092Z,73.73
2018-03-23T06:31:26.725Z,71.23
2018-03-23T06:33:54.029Z,68.67
2018-03-23T06:36:20.639Z,77.77
2018-03-23T06:38:47.324Z,83.53
2018-03-23T06:41:13.966Z,74.10
2018-03-23T06:43:40.646Z,72.93
2018-03-23T06:46:07.299Z,76.57
2018-03-23T06:48:33.927Z,70.33
2018-03-23T06:51:00.618Z,72.50
2018-03-23T06:53:27.478Z,77.90
2018-03-23T06:55:54.135Z,79.97
2018-03-23T06:58:20.784Z,73.73
2018-03-23T07:00:47.431Z,79.47
2018-03-23T07:03:14.112Z,77.00
2018-03-23T07:05:40.705Z,73.27
2018-03-23T07:08:07.476Z,74.87
2018-03-23T07:10:34.090Z,75.47
2018-03-23T07:13:00.785Z,73.37
2018-03-23T07:15:27.573Z,80.37
2018-03-23T07:17:54.195Z,84.80
2018-03-23T07:20:20.822Z,78.03
2018-03-23T07:22:47.440Z,79.20
2018-03-23T07:25:14.046Z,84.60
2018-03-23T07:27:40.665Z,86.27
2018-03-23T07:30:07.320Z,77.40
2018-03-23T07:32:33.918Z,76.53
2018-03-23T07:35:00.609Z,78.47
2018-03-23T07:37:27.481Z,77.20
2018-03-23T07:39:54.123Z,81.90
2018-03-23T07:42:20.724Z,76.10
2018-03-23T07:44:47.324Z,74.50
2018-03-23T07:47:13.965Z,82.63
2018-03-23T07:49:40.584Z,80.67
2018-03-23T07:52:07.430Z,87.33
2018-03-23T07:54:34.076Z,83.50
2018-03-23T07:57:00.717Z,82.93
2018-03-23T07:59:27.449Z,78.33
2018-03-23T08:01:54.080Z,82.50
2018-03-23T08:04:20.659Z,83.97
2018-03-23T08:06:47.245Z,80.83
2018-03-23T08:09:13.909Z,85.70
2018-03-23T08:11:40.831Z,82.43
2018-03-23T08:14:07.465Z,82.90
2018-03-23T08:16:34.100Z,79.13
2018-03-23T08:19:00.746Z,76.40
2018-03-23T08:21:27.421Z,77.40
2018-03-23T08:23:54.068Z,81.00
2018-03-23T08:26:21.101Z,82.27
2018-03-23T08:28:47.767Z,83.60
2018-03-23T08:31:14.422Z,82.37
2018-03-23T08:33:41.029Z,82.97
2018-03-23T08:36:07.694Z,79.23
2018-03-23T08:38:34.313Z,78.93
2018-03-23T08:41:00.920Z,71.73
2018-03-23T08:43:27.550Z,74.57
2018-03-23T08:45:54.228Z,79.93
2018-03-23T08:48:20.837Z,74.77
2018-03-23T08:50:47.440Z,70.17
2018-03-23T08:53:14.050Z,66.63
2018-03-23T08:55:40.678Z,77.47
2018-03-23T08:58:07.274Z,78.83
2018-03-23T09:00:34.086Z,85.33
2018-03-23T09:03:00.681Z,72.33
2018-03-23T09:05:27.396Z,70.50
2018-03-23T09:07:53.990Z,78.67
2018-03-23T09:10:20.622Z,70.87
2018-03-23T09:12:47.247Z,70.40
2018-03-23T09:15:13.877Z,70.77
2018-03-23T09:17:40.473Z,74.90
2018-03-23T09:20:07.324Z,78.20
2018-03-23T09:22:33.934Z,80.93
2018-03-23T09:25:00.605Z,69.13
2018-03-23T09:27:27.219Z,77.20
2018-03-23T09:29:53.853Z,76.40
2018-03-23T09:32:20.480Z,72.40
2018-03-23T09:34:47.097Z,86.50
2018-03-23T09:37:13.721Z,93.53
2018-03-23T09:39:40.356Z,75.50
2018-03-23T09:42:07.035Z,74.23
2018-03-23T09:44:33.881Z,69.83
2018-03-23T09:47:00.562Z,66.83
2018-03-23T09:49:27.204Z,66.60
2018-03-23T09:51:53.798Z,71.03
2018-03-23T09:54:20.421Z,64.50
2018-03-23T09:56:47.035Z,71.37
2018-03-23T09:59:13.805Z,71.97
2018-03-23T10:01:40.449Z,61.50
2018-03-23T10:04:07.181Z,76.40
2018-03-23T10:06:33.712Z,65.63
2018-03-23T10:09:00.374Z,63.97
2018-03-23T10:11:27.011Z,67.00
2018-03-23T10:13:53.660Z,70.90
2018-03-23T10:16:20.329Z,64.93
2018-03-23T10:18:46.979Z,61.67
2018-03-23T10:21:13.641Z,67.43
2018-03-23T10:23:40.297Z,80.00
2018-03-23T10:26:07.142Z,55.03
2018-03-23T11:44:30.069Z,31.13
2018-03-23T11:46:56.707Z,38.00
2018-03-23T11:49:23.307Z,31.17
2018-03-23T11:51:49.986Z,36.77
2018-03-23T11:54:16.575Z,32.60
2018-03-23T11:56:43.192Z,65.73
2018-03-23T11:59:09.845Z,43.23
2018-03-23T12:01:36.473Z,34.90
2018-03-23T12:04:03.111Z,46.57
2018-03-23T12:06:30.541Z,39.67
2018-03-23T12:08:57.176Z,44.73
2018-03-23T12:11:23.812Z,37.77
2018-03-23T12:13:50.670Z,48.20
2018-03-23T12:16:17.282Z,28.70
2018-03-23T12:18:44.065Z,49.23
2018-03-23T12:21:10.704Z,35.37
2018-03-23T12:23:37.349Z,38.23
2018-03-23T12:26:03.940Z,33.67
2018-03-23T12:28:30.589Z,50.37
2018-03-23T12:30:57.345Z,44.47
2018-03-23T12:33:24.630Z,49.37
2018-03-23T12:35:51.260Z,41.27
2018-03-23T12:38:17.890Z,52.60
2018-03-23T12:40:44.498Z,42.10
2018-03-23T12:43:11.126Z,37.20
2018-03-23T12:45:37.901Z,35.80
2018-03-23T12:48:04.612Z,43.17
2018-03-23T12:50:31.242Z,48.77
2018-03-23T12:52:57.969Z,32.90
2018-03-23T12:55:24.611Z,56.77
2018-03-23T12:57:51.223Z,31.20
2018-03-23T13:00:18.019Z,32.13
2018-03-23T13:02:44.635Z,31.93
2018-03-23T13:05:11.578Z,30.70
2018-03-23T13:07:38.168Z,35.87
2018-03-23T13:10:04.801Z,40.30
2018-03-23T13:12:31.434Z,34.60
2018-03-23T13:14:58.031Z,47.00
2018-03-23T13:17:24.802Z,33.53
2018-03-23T13:19:51.432Z,27.00
2018-03-23T13:22:18.047Z,35.00
2018-03-23T13:24:44.685Z,33.30
2018-03-23T13:27:11.285Z,31.90
2018-03-23T13:29:37.912Z,27.47
2018-03-23T13:32:04.517Z,46.83
2018-03-23T13:34:31.125Z,27.27
2018-03-23T13:36:57.758Z,34.57
2018-03-23T13:39:24.849Z,36.97
2018-03-23T13:41:51.558Z,44.63
2018-03-23T13:44:18.162Z,31.97
2018-03-23T13:46:44.831Z,33.87
2018-03-23T13:49:12.127Z,28.67
2018-03-23T13:51:38.747Z,28.00
2018-03-23T13:54:05.358Z,31.13
2018-03-23T13:56:32.077Z,37.10
2018-03-23T13:59:04.349Z,33.50
2018-03-23T14:01:36.748Z,28.30
2018-03-23T14:04:03.434Z,23.23
2018-03-23T14:06:30.719Z,29.93
2018-03-23T14:08:57.316Z,33.87
2018-03-23T14:11:24.004Z,23.40
2018-03-23T14:13:50.639Z,21.43
2018-03-23T14:16:17.233Z,18.40
2018-03-23T14:18:43.884Z,28.80
2018-03-23T14:21:10.547Z,22.77
2018-03-23T14:23:37.282Z,17.50
2018-03-23T14:26:03.856Z,21.30
2018-03-23T14:28:30.515Z,21.00
2018-03-23T14:30:57.130Z,24.30
2018-03-23T14:33:23.737Z,22.70
2018-03-23T14:35:50.344Z,19.37
2018-03-23T14:38:17.088Z,22.33
2018-03-23T14:40:43.687Z,20.90
2018-03-23T14:43:10.323Z,22.87
2018-03-23T14:45:36.960Z,23.63
2018-03-23T14:48:03.622Z,19.90
2018-03-23T14:50:30.234Z,22.40
2018-03-23T14:52:56.836Z,20.20
2018-03-23T14:55:23.435Z,19.40
2018-03-23T14:57:50.300Z,23.50
2018-03-23T15:00:16.921Z,25.53
2018-03-23T15:02:43.547Z,22.13
2018-03-23T15:05:10.164Z,21.03
2018-03-23T15:07:36.782Z,19.50
2018-03-23T15:10:03.419Z,18.43
2018-03-23T15:12:30.038Z,19.43
2018-03-23T15:14:56.741Z,19.57
2018-03-23T15:17:23.343Z,25.53
2018-03-23T15:19:49.962Z,18.90
2018-03-23T15:22:16.628Z,25.33
2018-03-23T15:24:43.260Z,34.47
2018-03-23T15:27:09.903Z,21.07
2018-03-23T15:29:36.523Z,25.27
2018-03-23T15:32:03.455Z,26.40
2018-03-23T15:34:30.374Z,21.90
2018-03-23T15:36:56.973Z,25.80
2018-03-23T15:39:23.587Z,27.00
2018-03-23T15:41:50.212Z,27.17
2018-03-23T15:44:16.849Z,26.20
2018-03-23T15:46:43.583Z,24.03
2018-03-23T15:49:10.199Z,28.53
2018-03-23T15:51:36.955Z,25.83
2018-03-23T15:54:03.597Z,26.53
2018-03-23T15:56:30.263Z,25.83
2018-03-23T15:58:56.894Z,27.77
2018-03-23T16:01:23.512Z,25.53
2018-03-23T16:03:50.214Z,30.67
2018-03-23T16:06:16.814Z,24.83
2018-03-23T16:08:43.453Z,26.93
2018-03-23T16:11:10.038Z,24.47
2018-03-23T16:13:36.665Z,29.00
2018-03-23T16:16:03.338Z,29.80
2018-03-23T16:18:29.956Z,30.47
2018-03-23T16:20:56.547Z,31.13
2018-03-23T16:23:23.197Z,29.67
2018-03-23T16:25:49.774Z,30.43
2018-03-23T16:28:16.470Z,28.23
2018-03-23T16:30:43.111Z,29.60
2018-03-23T16:33:09.744Z,27.40
2018-03-23T16:35:36.369Z,32.47
2018-03-23T16:38:03.129Z,25.60
2018-03-23T16:40:29.763Z,31.87
2018-03-23T16:42:56.430Z,30.73
2018-03-23T16:45:23.017Z,28.27
2018-03-23T16:47:49.619Z,25.77
2018-03-23T16:50:16.239Z,25.60
2018-03-23T16:52:42.855Z,30.43
2018-03-23T16:55:09.468Z,29.77
2018-03-23T16:57:36.342Z,30.73
2018-03-23T17:00:03.104Z,38.63
2018-03-23T17:02:29.768Z,29.40
2018-03-23T17:04:56.435Z,24.10
2018-03-23T17:07:23.180Z,29.40
2018-03-23T17:09:49.833Z,30.73
2018-03-23T17:12:16.428Z,29.70
2018-03-23T17:14:43.053Z,29.07
2018-03-23T17:17:09.638Z,45.60
2018-03-23T17:19:36.320Z,26.27
2018-03-23T17:22:02.922Z,28.63
2018-03-23T17:24:29.552Z,29.17
2018-03-23T17:26:58.191Z,31.27
2018-03-23T17:29:24.796Z,30.17
2018-03-23T17:31:51.421Z,26.60
2018-03-23T17:34:18.037Z,31.53
2018-03-23T17:36:44.628Z,32.73
2018-03-23T17:39:11.326Z,30.73
2018-03-23T17:41:37.960Z,31.53
2018-03-23T17:44:04.620Z,32.57
2018-03-23T17:46:31.235Z,30.37
2018-03-23T17:48:57.997Z,28.50
2018-03-23T17:51:24.571Z,30.40
2018-03-23T17:53:51.194Z,27.90
2018-03-23T17:56:17.806Z,30.33
2018-03-23T17:58:44.395Z,30.33
2018-03-23T18:01:11.034Z,27.03
2018-03-23T18:03:37.641Z,29.70
2018-03-23T18:06:04.256Z,31.83
2018-03-23T18:08:30.884Z,30.30
2018-03-23T18:10:57.581Z,33.70
2018-03-23T18:13:24.216Z,29.57
2018-03-23T18:15:51.534Z,31.10
2018-03-23T18:18:18.177Z,31.20
2018-03-23T18:20:44.824Z,30.83
2018-03-23T18:23:11.423Z,37.47
2018-03-23T18:25:38.041Z,37.27
2018-03-23T18:28:04.694Z,35.33
2018-03-23T18:30:31.346Z,31.57
2018-03-23T18:32:57.952Z,35.23
2018-03-23T18:35:24.673Z,30.57
2018-03-23T18:37:51.311Z,31.63
2018-03-23T18:40:18.024Z,28.77
2018-03-23T18:42:44.661Z,31.20
2018-03-23T18:45:11.270Z,37.20
2018-03-23T18:47:38.024Z,30.63
2018-03-23T18:50:04.642Z,31.60
2018-03-23T18:52:31.539Z,31.47
2018-03-23T18:54:58.142Z,33.87
2018-03-23T18:57:24.766Z,35.00
2018-03-23T18:59:51.392Z,34.77
2018-03-23T19:02:18.059Z,33.03
2018-03-23T19:04:44.894Z,31.67
2018-03-23T19:07:11.520Z,37.77
2018-03-23T19:09:38.158Z,30.50
2018-03-23T19:12:05.025Z,36.70
2018-03-23T19:14:31.707Z,30.03
2018-03-23T19:17:00.157Z,37.00
2018-03-23T19:19:27.943Z,36.50
2018-03-23T19:21:54.762Z,37.50
2018-03-23T19:24:21.412Z,31.43
2018-03-23T19:26:48.048Z,35.03
2018-03-23T19:29:14.715Z,31.23
2018-03-23T19:31:41.364Z,38.60
2018-03-23T19:34:10.738Z,29.30
2018-03-23T19:36:37.374Z,33.60
2018-03-23T19:39:06.097Z,38.57
2018-03-23T19:41:34.805Z,45.43
2018-03-23T19:44:02.420Z,30.93
2018-03-23T19:46:29.518Z,36.10
2018-03-23T19:48:56.219Z,36.33
2018-03-23T19:51:22.832Z,29.93
2018-03-23T19:53:49.540Z,39.40
2018-03-23T19:56:17.108Z,37.17
2018-03-23T19:58:43.777Z,32.20
2018-03-23T20:01:10.491Z,34.40
2018-03-23T20:03:37.125Z,31.10
2018-03-23T20:06:03.746Z,30.27
2018-03-23T20:08:30.383Z,31.67
2018-03-23T20:10:58.206Z,29.53
2018-03-23T20:13:24.819Z,31.87
2018-03-23T20:15:51.432Z,31.50
2018-03-23T20:18:22.966Z,34.57
2018-03-23T20:20:55.304Z,32.00
2018-03-23T20:23:21.947Z,30.20
2018-03-23T20:25:48.663Z,36.83
2018-03-23T20:28:21.032Z,34.43
2018-03-23T20:30:47.665Z,33.27
2018-03-23T20:33:14.309Z,37.93
2018-03-23T20:35:40.960Z,32.30
2018-03-23T20:38:07.585Z,37.10
2018-03-23T20:40:34.211Z,35.13
2018-03-23T20:43:00.821Z,34.40
2018-03-23T20:45:27.430Z,33.43
2018-03-23T20:47:54.075Z,39.67
2018-03-23T20:50:20.797Z,30.50
2018-03-23T20:52:48.158Z,34.17
2018-03-23T20:55:14.763Z,38.53
2018-03-23T20:57:41.724Z,36.90
2018-03-23T21:00:08.351Z,36.37
2018-03-23T21:02:34.994Z,35.60
2018-03-23T21:05:01.726Z,36.13
2018-03-23T21:07:28.368Z,34.23
2018-03-23T21:09:55.018Z,29.30
2018-03-23T21:12:21.627Z,31.37
2018-03-23T21:14:48.540Z,29.03
2018-03-23T21:17:15.311Z,30.30
2018-03-23T21:19:41.947Z,31.13
2018-03-23T21:22:09.176Z,31.13
2018-03-23T21:24:35.840Z,30.20
2018-03-23T21:27:02.518Z,32.57
2018-03-23T21:29:29.197Z,28.63
2018-03-23T21:31:56.002Z,26.43
2018-03-23T21:34:22.693Z,44.97
2018-03-23T21:36:49.266Z,32.60
2018-03-23T21:39:15.902Z,36.37
2018-03-23T21:41:42.581Z,35.73
2018-03-23T21:44:09.219Z,33.47
2018-03-23T21:46:35.799Z,36.90
2018-03-23T21:49:02.453Z,43.43
2018-03-23T21:51:29.069Z,41.10
2018-03-23T21:53:55.702Z,69.13
2018-03-23T21:56:22.346Z,45.73
2018-03-23T21:58:48.972Z,38.70
2018-03-23T22:01:15.599Z,43.40
2018-03-23T22:03:42.248Z,35.93
2018-03-23T22:06:08.869Z,37.83
2018-03-23T22:08:35.562Z,36.63
2018-03-23T22:11:02.182Z,41.23
2018-03-23T22:13:28.820Z,44.43
2018-03-23T22:15:55.480Z,37.00
2018-03-23T22:18:22.166Z,37.37
2018-03-23T22:20:48.818Z,34.80
2018-03-23T22:23:15.416Z,35.83
2018-03-23T22:25:42.062Z,35.83
2018-03-23T22:28:08.656Z,36.80
2018-03-23T22:30:35.296Z,36.97
2018-03-23T22:33:01.953Z,46.13
2018-03-23T22:35:28.579Z,35.40
2018-03-23T22:37:55.205Z,41.80
2018-03-23T22:40:21.830Z,36.07
2018-03-23T22:42:48.468Z,38.63
2018-03-23T22:45:15.133Z,42.00
2018-03-23T22:47:41.826Z,37.77
2018-03-23T22:50:08.487Z,38.07
2018-03-23T22:52:35.190Z,40.13
2018-03-23T22:55:01.925Z,36.70
2018-03-23T22:57:28.596Z,39.20
2018-03-23T22:59:55.522Z,33.43
2018-03-23T23:02:22.139Z,35.30
2018-03-23T23:04:48.728Z,35.33
2018-03-23T23:07:15.355Z,34.40
2018-03-23T23:09:41.973Z,39.63
2018-03-23T23:12:08.627Z,33.53
2018-03-23T23:14:35.550Z,36.13
2018-03-23T23:17:02.171Z,38.80
2018-03-23T23:19:28.795Z,37.50
2018-03-23T23:21:55.398Z,44.23
2018-03-23T23:24:22.272Z,46.30
2018-03-23T23:26:48.957Z,43.70
2018-03-23T23:29:15.584Z,44.90
2018-03-23T23:31:42.203Z,40.57
2018-03-23T23:34:09.190Z,40.53
2018-03-23T23:36:35.793Z,43.37
2018-03-23T23:39:02.396Z,38.97
2018-03-23T23:41:29.083Z,43.27
2018-03-23T23:43:55.774Z,37.30
2018-03-23T23:46:22.393Z,43.83
2018-03-23T23:48:49.005Z,43.70
2018-03-23T23:51:15.658Z,42.13
2018-03-23T23:53:42.284Z,45.70
2018-03-23T23:56:08.910Z,42.63
2018-03-23T23:58:35.826Z,47.93
